sensor_id;sensor_type;location;lat;lon;timestamp;pressure;altitude;pressure_sealevel;temperature;humidity
47811;BME280;33575;52.600;7.318;2022-12-07T00:01:46;101367.41;;;4.48;96.50
47811;BME280;33575;52.600;7.318;2022-12-07T00:04:17;101364.34;;;4.45;96.37
47811;BME280;33575;52.600;7.318;2022-12-07T00:06:50;101365.60;;;4.43;96.22
47811;BME280;33575;52.600;7.318;2022-12-07T00:09:17;101364.22;;;4.42;95.87
47811;BME280;33575;52.600;7.318;2022-12-07T00:11:50;101358.59;;;4.37;95.79
47811;BME280;33575;52.600;7.318;2022-12-07T00:14:18;101363.16;;;4.32;96.54
47811;BME280;33575;52.600;7.318;2022-12-07T00:16:49;101364.00;;;4.27;96.19
47811;BME280;33575;52.600;7.318;2022-12-07T00:19:19;101367.01;;;4.23;96.35
47811;BME280;33575;52.600;7.318;2022-12-07T00:21:49;101361.96;;;4.17;97.60
47811;BME280;33575;52.600;7.318;2022-12-07T00:24:20;101358.32;;;4.16;96.56
47811;BME280;33575;52.600;7.318;2022-12-07T00:26:51;101358.68;;;4.15;96.14
47811;BME280;33575;52.600;7.318;2022-12-07T00:29:22;101358.19;;;4.13;96.44
47811;BME280;33575;52.600;7.318;2022-12-07T00:31:53;101357.45;;;4.09;95.70
47811;BME280;33575;52.600;7.318;2022-12-07T00:34:23;101360.45;;;4.01;96.13
47811;BME280;33575;52.600;7.318;2022-12-07T00:36:54;101353.99;;;3.97;96.35
47811;BME280;33575;52.600;7.318;2022-12-07T00:39:25;101354.83;;;4.01;95.76
47811;BME280;33575;52.600;7.318;2022-12-07T00:41:55;101353.06;;;3.89;96.26
47811;BME280;33575;52.600;7.318;2022-12-07T00:44:26;101350.56;;;3.79;97.59
47811;BME280;33575;52.600;7.318;2022-12-07T00:46:57;101351.43;;;3.72;96.04
47811;BME280;33575;52.600;7.318;2022-12-07T00:49:27;101348.23;;;3.75;96.46
47811;BME280;33575;52.600;7.318;2022-12-07T00:51:58;101351.29;;;3.74;96.44
47811;BME280;33575;52.600;7.318;2022-12-07T00:54:29;101348.22;;;3.76;95.94
47811;BME280;33575;52.600;7.318;2022-12-07T00:56:59;101346.32;;;3.56;96.12
47811;BME280;33575;52.600;7.318;2022-12-07T00:59:30;101343.31;;;3.68;96.08
47811;BME280;33575;52.600;7.318;2022-12-07T01:02:01;101339.90;;;3.64;96.76
47811;BME280;33575;52.600;7.318;2022-12-07T01:04:33;101338.06;;;3.65;96.78
47811;BME280;33575;52.600;7.318;2022-12-07T01:07:02;101336.15;;;3.62;96.55
47811;BME280;33575;52.600;7.318;2022-12-07T01:09:33;101337.09;;;3.61;96.34
47811;BME280;33575;52.600;7.318;2022-12-07T01:12:04;101334.70;;;3.59;95.98
47811;BME280;33575;52.600;7.318;2022-12-07T01:14:35;101334.35;;;3.56;96.60
47811;BME280;33575;52.600;7.318;2022-12-07T01:17:05;101336.31;;;3.57;95.65
47811;BME280;33575;52.600;7.318;2022-12-07T01:19:36;101347.60;;;3.60;95.50
47811;BME280;33575;52.600;7.318;2022-12-07T01:22:07;101343.69;;;3.58;95.61
47811;BME280;33575;52.600;7.318;2022-12-07T01:24:38;101343.33;;;3.58;95.77
47811;BME280;33575;52.600;7.318;2022-12-07T01:27:08;101343.52;;;3.54;94.99
47811;BME280;33575;52.600;7.318;2022-12-07T01:29:39;101343.81;;;3.52;96.23
47811;BME280;33575;52.600;7.318;2022-12-07T01:32:10;101342.84;;;3.54;96.14
47811;BME280;33575;52.600;7.318;2022-12-07T01:34:41;101341.55;;;3.47;97.03
47811;BME280;33575;52.600;7.318;2022-12-07T01:37:11;101341.74;;;3.46;96.90
47811;BME280;33575;52.600;7.318;2022-12-07T01:39:42;101344.22;;;3.50;96.16
47811;BME280;33575;52.600;7.318;2022-12-07T01:42:13;101347.86;;;3.45;96.98
47811;BME280;33575;52.600;7.318;2022-12-07T01:47:14;101355.10;;;3.43;96.49
47811;BME280;33575;52.600;7.318;2022-12-07T01:49:47;101356.38;;;3.47;96.49
47811;BME280;33575;52.600;7.318;2022-12-07T01:52:19;101359.14;;;3.51;96.23
47811;BME280;33575;52.600;7.318;2022-12-07T01:54:49;101356.68;;;3.52;96.11
47811;BME280;33575;52.600;7.318;2022-12-07T01:57:18;101350.94;;;3.43;96.29
47811;BME280;33575;52.600;7.318;2022-12-07T01:59:50;101352.73;;;3.40;96.55
47811;BME280;33575;52.600;7.318;2022-12-07T02:02:23;101352.03;;;3.24;97.30
47811;BME280;33575;52.600;7.318;2022-12-07T02:04:51;101354.00;;;3.33;96.73
47811;BME280;33575;52.600;7.318;2022-12-07T02:07:21;101349.62;;;3.30;96.97
47811;BME280;33575;52.600;7.318;2022-12-07T02:09:51;101346.05;;;3.26;97.27
47811;BME280;33575;52.600;7.318;2022-12-07T02:12:23;101346.03;;;3.33;97.14
47811;BME280;33575;52.600;7.318;2022-12-07T02:14:53;101335.96;;;3.35;97.04
47811;BME280;33575;52.600;7.318;2022-12-07T02:17:31;101334.42;;;3.39;97.05
47811;BME280;33575;52.600;7.318;2022-12-07T02:20:05;101332.18;;;3.42;96.70
47811;BME280;33575;52.600;7.318;2022-12-07T02:24:58;101329.89;;;3.47;96.66
47811;BME280;33575;52.600;7.318;2022-12-07T02:27:35;101332.98;;;3.50;95.86
47811;BME280;33575;52.600;7.318;2022-12-07T02:30:00;101333.18;;;3.50;95.83
47811;BME280;33575;52.600;7.318;2022-12-07T02:32:35;101334.35;;;3.50;95.75
47811;BME280;33575;52.600;7.318;2022-12-07T02:35:05;101332.74;;;3.50;94.75
47811;BME280;33575;52.600;7.318;2022-12-07T02:37:35;101339.17;;;3.52;94.91
47811;BME280;33575;52.600;7.318;2022-12-07T02:40:06;101341.35;;;3.37;95.16
47811;BME280;33575;52.600;7.318;2022-12-07T02:42:35;101339.24;;;3.46;95.10
47811;BME280;33575;52.600;7.318;2022-12-07T02:45:04;101344.43;;;3.45;94.21
47811;BME280;33575;52.600;7.318;2022-12-07T02:47:34;101342.42;;;3.41;94.72
47811;BME280;33575;52.600;7.318;2022-12-07T02:50:06;101342.01;;;3.30;96.08
47811;BME280;33575;52.600;7.318;2022-12-07T02:52:34;101333.14;;;3.29;95.00
47811;BME280;33575;52.600;7.318;2022-12-07T02:55:06;101327.00;;;3.28;96.22
47811;BME280;33575;52.600;7.318;2022-12-07T02:57:45;101323.41;;;3.32;95.84
47811;BME280;33575;52.600;7.318;2022-12-07T03:00:09;101330.71;;;3.34;95.81
47811;BME280;33575;52.600;7.318;2022-12-07T03:02:45;101331.20;;;3.36;95.41
47811;BME280;33575;52.600;7.318;2022-12-07T03:05:18;101326.94;;;3.29;96.19
47811;BME280;33575;52.600;7.318;2022-12-07T03:07:44;101326.14;;;3.19;95.53
47811;BME280;33575;52.600;7.318;2022-12-07T03:10:17;101326.60;;;3.26;95.40
47811;BME280;33575;52.600;7.318;2022-12-07T03:12:45;101322.09;;;3.21;96.62
47811;BME280;33575;52.600;7.318;2022-12-07T03:15:14;101322.22;;;3.27;95.38
47811;BME280;33575;52.600;7.318;2022-12-07T03:17:43;101318.76;;;3.30;95.19
47811;BME280;33575;52.600;7.318;2022-12-07T03:20:14;101315.90;;;3.27;95.24
47811;BME280;33575;52.600;7.318;2022-12-07T03:22:44;101317.54;;;3.23;96.14
47811;BME280;33575;52.600;7.318;2022-12-07T03:25:16;101311.56;;;3.23;95.95
47811;BME280;33575;52.600;7.318;2022-12-07T03:27:49;101311.59;;;3.28;95.88
47811;BME280;33575;52.600;7.318;2022-12-07T03:30:18;101308.43;;;3.28;95.94
47811;BME280;33575;52.600;7.318;2022-12-07T03:32:50;101304.57;;;3.32;95.13
47811;BME280;33575;52.600;7.318;2022-12-07T03:35:20;101305.70;;;3.34;95.25
47811;BME280;33575;52.600;7.318;2022-12-07T03:37:51;101305.60;;;3.36;94.95
47811;BME280;33575;52.600;7.318;2022-12-07T03:40:23;101305.08;;;3.34;94.57
47811;BME280;33575;52.600;7.318;2022-12-07T03:42:50;101307.85;;;3.32;94.81
47811;BME280;33575;52.600;7.318;2022-12-07T03:45:24;101307.74;;;3.30;95.48
47811;BME280;33575;52.600;7.318;2022-12-07T03:48:00;101306.76;;;3.26;96.05
47811;BME280;33575;52.600;7.318;2022-12-07T03:50:26;101308.28;;;3.19;95.65
47811;BME280;33575;52.600;7.318;2022-12-07T03:52:55;101306.86;;;3.19;95.41
47811;BME280;33575;52.600;7.318;2022-12-07T03:55:28;101306.11;;;3.20;95.53
47811;BME280;33575;52.600;7.318;2022-12-07T03:57:56;101307.01;;;3.20;94.79
47811;BME280;33575;52.600;7.318;2022-12-07T04:00:25;101309.50;;;3.16;95.37
47811;BME280;33575;52.600;7.318;2022-12-07T04:02:56;101309.53;;;3.01;96.96
47811;BME280;33575;52.600;7.318;2022-12-07T04:05:26;101316.63;;;3.22;100.00
47811;BME280;33575;52.600;7.318;2022-12-07T04:07:56;101319.38;;;3.28;99.01
47811;BME280;33575;52.600;7.318;2022-12-07T04:10:26;101323.50;;;3.03;97.72
47811;BME280;33575;52.600;7.318;2022-12-07T04:12:57;101317.01;;;3.02;96.07
47811;BME280;33575;52.600;7.318;2022-12-07T04:15:28;101310.15;;;2.95;97.00
47811;BME280;33575;52.600;7.318;2022-12-07T04:17:59;101307.34;;;2.77;97.23
47811;BME280;33575;52.600;7.318;2022-12-07T04:20:29;101309.23;;;2.72;97.45
47811;BME280;33575;52.600;7.318;2022-12-07T04:23:00;101313.40;;;2.70;97.21
47811;BME280;33575;52.600;7.318;2022-12-07T04:25:31;101313.44;;;2.51;96.89
47811;BME280;33575;52.600;7.318;2022-12-07T04:28:02;101314.71;;;2.59;97.40
47811;BME280;33575;52.600;7.318;2022-12-07T04:30:32;101314.93;;;2.49;98.19
47811;BME280;33575;52.600;7.318;2022-12-07T04:33:03;101323.45;;;2.52;97.83
47811;BME280;33575;52.600;7.318;2022-12-07T04:35:34;101315.53;;;2.52;99.12
47811;BME280;33575;52.600;7.318;2022-12-07T04:38:05;101314.40;;;2.58;98.91
47811;BME280;33575;52.600;7.318;2022-12-07T04:40:36;101310.57;;;2.63;98.75
47811;BME280;33575;52.600;7.318;2022-12-07T04:43:06;101309.48;;;2.74;97.81
47811;BME280;33575;52.600;7.318;2022-12-07T04:45:37;101301.91;;;2.77;97.58
47811;BME280;33575;52.600;7.318;2022-12-07T04:48:08;101310.04;;;2.84;97.60
47811;BME280;33575;52.600;7.318;2022-12-07T04:50:44;101312.07;;;2.87;97.40
47811;BME280;33575;52.600;7.318;2022-12-07T04:53:09;101316.32;;;2.92;97.10
47811;BME280;33575;52.600;7.318;2022-12-07T04:55:40;101314.81;;;2.96;96.54
47811;BME280;33575;52.600;7.318;2022-12-07T04:58:12;101313.67;;;2.98;96.68
47811;BME280;33575;52.600;7.318;2022-12-07T05:00:42;101311.16;;;2.97;96.76
47811;BME280;33575;52.600;7.318;2022-12-07T05:03:13;101314.63;;;3.02;97.16
47811;BME280;33575;52.600;7.318;2022-12-07T05:05:43;101311.52;;;3.05;97.11
47811;BME280;33575;52.600;7.318;2022-12-07T05:08:14;101309.33;;;3.00;97.77
47811;BME280;33575;52.600;7.318;2022-12-07T05:10:45;101309.04;;;3.02;98.05
47811;BME280;33575;52.600;7.318;2022-12-07T05:13:16;101299.98;;;3.07;97.65
47811;BME280;33575;52.600;7.318;2022-12-07T05:15:47;101288.04;;;3.10;97.29
47811;BME280;33575;52.600;7.318;2022-12-07T05:18:17;101289.14;;;3.13;97.62
47811;BME280;33575;52.600;7.318;2022-12-07T05:20:48;101298.04;;;3.14;97.48
47811;BME280;33575;52.600;7.318;2022-12-07T05:23:19;101289.85;;;3.14;97.44
47811;BME280;33575;52.600;7.318;2022-12-07T05:25:50;101292.68;;;3.14;97.12
47811;BME280;33575;52.600;7.318;2022-12-07T05:28:20;101292.69;;;3.10;97.00
47811;BME280;33575;52.600;7.318;2022-12-07T05:30:56;101292.45;;;3.05;96.89
47811;BME280;33575;52.600;7.318;2022-12-07T05:33:22;101290.84;;;3.04;96.23
47811;BME280;33575;52.600;7.318;2022-12-07T05:35:53;101288.90;;;3.05;96.65
47811;BME280;33575;52.600;7.318;2022-12-07T05:38:24;101287.98;;;2.97;96.86
47811;BME280;33575;52.600;7.318;2022-12-07T05:40:54;101290.36;;;2.85;97.03
47811;BME280;33575;52.600;7.318;2022-12-07T05:43:25;101291.19;;;2.83;96.73
47811;BME280;33575;52.600;7.318;2022-12-07T05:45:56;101289.56;;;2.85;96.69
47811;BME280;33575;52.600;7.318;2022-12-07T05:48:27;101292.32;;;2.84;96.67
47811;BME280;33575;52.600;7.318;2022-12-07T05:50:57;101298.91;;;2.86;96.86
47811;BME280;33575;52.600;7.318;2022-12-07T05:53:28;101294.91;;;2.82;96.65
47811;BME280;33575;52.600;7.318;2022-12-07T05:55:59;101296.31;;;2.72;97.44
47811;BME280;33575;52.600;7.318;2022-12-07T05:58:30;101297.85;;;2.66;96.79
47811;BME280;33575;52.600;7.318;2022-12-07T06:01:01;101302.16;;;2.59;97.00
47811;BME280;33575;52.600;7.318;2022-12-07T06:03:31;101297.78;;;2.56;97.43
47811;BME280;33575;52.600;7.318;2022-12-07T06:06:03;101298.22;;;2.56;97.27
47811;BME280;33575;52.600;7.318;2022-12-07T06:08:33;101296.92;;;2.55;97.03
47811;BME280;33575;52.600;7.318;2022-12-07T06:11:04;101292.24;;;2.49;97.88
47811;BME280;33575;52.600;7.318;2022-12-07T06:13:35;101291.90;;;2.46;97.25
47811;BME280;33575;52.600;7.318;2022-12-07T06:16:06;101287.49;;;2.43;98.32
47811;BME280;33575;52.600;7.318;2022-12-07T06:18:36;101288.24;;;2.42;98.07
47811;BME280;33575;52.600;7.318;2022-12-07T06:21:07;101292.39;;;2.46;97.57
47811;BME280;33575;52.600;7.318;2022-12-07T06:23:38;101287.79;;;2.45;97.48
47811;BME280;33575;52.600;7.318;2022-12-07T06:26:08;101279.15;;;2.44;97.12
47811;BME280;33575;52.600;7.318;2022-12-07T06:28:39;101283.53;;;2.40;98.37
47811;BME280;33575;52.600;7.318;2022-12-07T06:31:15;101294.80;;;2.46;97.61
47811;BME280;33575;52.600;7.318;2022-12-07T06:33:41;101295.38;;;2.45;98.33
47811;BME280;33575;52.600;7.318;2022-12-07T06:36:11;101292.38;;;2.45;97.59
47811;BME280;33575;52.600;7.318;2022-12-07T06:38:42;101291.26;;;2.50;97.85
47811;BME280;33575;52.600;7.318;2022-12-07T06:41:13;101289.01;;;2.45;98.08
47811;BME280;33575;52.600;7.318;2022-12-07T06:43:44;101292.12;;;2.49;96.95
47811;BME280;33575;52.600;7.318;2022-12-07T06:46:16;101287.81;;;2.42;97.54
47811;BME280;33575;52.600;7.318;2022-12-07T06:48:46;101287.47;;;2.34;97.25
47811;BME280;33575;52.600;7.318;2022-12-07T06:51:16;101293.41;;;2.36;97.02
47811;BME280;33575;52.600;7.318;2022-12-07T06:53:47;101288.97;;;2.32;97.75
47811;BME280;33575;52.600;7.318;2022-12-07T06:56:18;101288.84;;;2.31;97.33
47811;BME280;33575;52.600;7.318;2022-12-07T06:58:49;101293.41;;;2.28;97.36
47811;BME280;33575;52.600;7.318;2022-12-07T07:01:20;101295.41;;;2.32;97.32
47811;BME280;33575;52.600;7.318;2022-12-07T07:03:50;101299.51;;;2.32;97.51
47811;BME280;33575;52.600;7.318;2022-12-07T07:06:21;101300.28;;;2.35;97.29
47811;BME280;33575;52.600;7.318;2022-12-07T07:08:52;101308.56;;;2.28;96.46
47811;BME280;33575;52.600;7.318;2022-12-07T07:11:23;101304.02;;;2.28;97.42
47811;BME280;33575;52.600;7.318;2022-12-07T07:13:53;101302.78;;;2.28;97.44
47811;BME280;33575;52.600;7.318;2022-12-07T07:16:24;101299.91;;;2.26;97.43
47811;BME280;33575;52.600;7.318;2022-12-07T07:18:55;101303.51;;;2.22;97.39
47811;BME280;33575;52.600;7.318;2022-12-07T07:21:26;101300.64;;;2.24;97.68
47811;BME280;33575;52.600;7.318;2022-12-07T07:23:57;101299.88;;;2.27;96.42
47811;BME280;33575;52.600;7.318;2022-12-07T07:26:27;101301.87;;;2.28;96.63
47811;BME280;33575;52.600;7.318;2022-12-07T07:28:58;101303.07;;;2.28;96.98
47811;BME280;33575;52.600;7.318;2022-12-07T07:31:29;101305.96;;;2.24;97.35
47811;BME280;33575;52.600;7.318;2022-12-07T07:34:00;101310.14;;;2.19;96.38
47811;BME280;33575;52.600;7.318;2022-12-07T07:36:31;101307.68;;;2.16;97.45
47811;BME280;33575;52.600;7.318;2022-12-07T07:39:02;101313.35;;;2.07;98.60
47811;BME280;33575;52.600;7.318;2022-12-07T07:41:32;101314.83;;;2.07;97.94
47811;BME280;33575;52.600;7.318;2022-12-07T07:44:03;101317.45;;;2.07;97.41
47811;BME280;33575;52.600;7.318;2022-12-07T07:46:34;101318.91;;;2.02;97.73
47811;BME280;33575;52.600;7.318;2022-12-07T07:49:05;101319.20;;;1.90;97.85
47811;BME280;33575;52.600;7.318;2022-12-07T07:51:36;101315.48;;;2.08;97.34
47811;BME280;33575;52.600;7.318;2022-12-07T07:54:06;101314.43;;;2.07;97.37
47811;BME280;33575;52.600;7.318;2022-12-07T07:56:37;101312.33;;;2.07;97.43
47811;BME280;33575;52.600;7.318;2022-12-07T07:59:08;101314.66;;;2.05;97.71
47811;BME280;33575;52.600;7.318;2022-12-07T08:01:39;101318.41;;;2.11;97.16
47811;BME280;33575;52.600;7.318;2022-12-07T08:04:10;101315.66;;;2.09;97.53
47811;BME280;33575;52.600;7.318;2022-12-07T08:06:41;101314.47;;;2.09;97.53
47811;BME280;33575;52.600;7.318;2022-12-07T08:09:12;101311.69;;;2.07;97.90
47811;BME280;33575;52.600;7.318;2022-12-07T08:11:43;101309.21;;;2.03;98.33
47811;BME280;33575;52.600;7.318;2022-12-07T08:14:13;101313.33;;;2.07;98.50
47811;BME280;33575;52.600;7.318;2022-12-07T08:16:44;101314.10;;;2.01;99.15
47811;BME280;33575;52.600;7.318;2022-12-07T08:19:15;101313.81;;;2.08;98.87
47811;BME280;33575;52.600;7.318;2022-12-07T08:21:46;101316.16;;;2.09;99.26
47811;BME280;33575;52.600;7.318;2022-12-07T08:24:17;101315.63;;;2.13;99.00
47811;BME280;33575;52.600;7.318;2022-12-07T08:26:47;101318.62;;;2.03;99.22
47811;BME280;33575;52.600;7.318;2022-12-07T08:29:18;101320.47;;;2.24;98.32
47811;BME280;33575;52.600;7.318;2022-12-07T08:31:49;101324.46;;;2.15;98.67
47811;BME280;33575;52.600;7.318;2022-12-07T08:34:20;101326.98;;;2.25;98.49
47811;BME280;33575;52.600;7.318;2022-12-07T08:36:51;101330.21;;;2.25;98.31
47811;BME280;33575;52.600;7.318;2022-12-07T08:39:26;101333.66;;;2.31;98.28
47811;BME280;33575;52.600;7.318;2022-12-07T08:41:52;101336.66;;;2.36;97.67
47811;BME280;33575;52.600;7.318;2022-12-07T08:44:23;101336.77;;;2.27;98.21
47811;BME280;33575;52.600;7.318;2022-12-07T08:46:57;101345.43;;;2.03;99.15
47811;BME280;33575;52.600;7.318;2022-12-07T08:49:26;101349.44;;;2.24;99.06
47811;BME280;33575;52.600;7.318;2022-12-07T08:51:55;101347.44;;;2.29;98.23
47811;BME280;33575;52.600;7.318;2022-12-07T08:54:27;101343.08;;;2.35;98.39
47811;BME280;33575;52.600;7.318;2022-12-07T08:57:00;101340.81;;;2.38;98.44
47811;BME280;33575;52.600;7.318;2022-12-07T08:59:28;101334.59;;;2.42;98.83
47811;BME280;33575;52.600;7.318;2022-12-07T09:01:59;101326.36;;;2.52;98.07
47811;BME280;33575;52.600;7.318;2022-12-07T09:04:30;101328.05;;;2.58;97.67
47811;BME280;33575;52.600;7.318;2022-12-07T09:07:01;101327.16;;;2.58;97.70
47811;BME280;33575;52.600;7.318;2022-12-07T09:09:31;101325.59;;;2.61;97.92
47811;BME280;33575;52.600;7.318;2022-12-07T09:12:03;101324.09;;;2.63;98.08
47811;BME280;33575;52.600;7.318;2022-12-07T09:14:33;101322.90;;;2.66;98.35
47811;BME280;33575;52.600;7.318;2022-12-07T09:17:06;101321.80;;;2.63;98.65
47811;BME280;33575;52.600;7.318;2022-12-07T09:19:34;101319.37;;;2.68;98.48
47811;BME280;33575;52.600;7.318;2022-12-07T09:22:05;101320.66;;;2.70;98.27
47811;BME280;33575;52.600;7.318;2022-12-07T09:24:36;101320.75;;;2.72;98.19
47811;BME280;33575;52.600;7.318;2022-12-07T09:27:07;101320.97;;;2.75;97.99
47811;BME280;33575;52.600;7.318;2022-12-07T09:29:38;101321.54;;;2.81;97.97
47811;BME280;33575;52.600;7.318;2022-12-07T09:32:12;101325.19;;;2.82;98.13
47811;BME280;33575;52.600;7.318;2022-12-07T09:34:39;101329.15;;;2.82;97.79
47811;BME280;33575;52.600;7.318;2022-12-07T09:37:10;101329.64;;;2.83;97.91
47811;BME280;33575;52.600;7.318;2022-12-07T09:39:46;101328.98;;;2.84;97.71
47811;BME280;33575;52.600;7.318;2022-12-07T09:42:26;101327.62;;;2.69;98.20
47811;BME280;33575;52.600;7.318;2022-12-07T09:44:42;101327.29;;;2.76;98.93
47811;BME280;33575;52.600;7.318;2022-12-07T09:47:13;101323.29;;;2.80;98.66
47811;BME280;33575;52.600;7.318;2022-12-07T09:49:44;101322.40;;;2.90;98.35
47811;BME280;33575;52.600;7.318;2022-12-07T09:52:20;101320.03;;;2.95;97.60
47811;BME280;33575;52.600;7.318;2022-12-07T09:54:47;101324.01;;;2.94;97.34
47811;BME280;33575;52.600;7.318;2022-12-07T09:57:17;101320.65;;;3.00;97.63
47811;BME280;33575;52.600;7.318;2022-12-07T09:59:47;101319.34;;;2.85;98.95
47811;BME280;33575;52.600;7.318;2022-12-07T10:02:26;101313.57;;;2.90;97.82
47811;BME280;33575;52.600;7.318;2022-12-07T10:04:49;101314.60;;;3.00;97.86
47811;BME280;33575;52.600;7.318;2022-12-07T10:07:20;101318.41;;;2.99;99.06
47811;BME280;33575;52.600;7.318;2022-12-07T10:09:50;101319.55;;;3.14;100.00
47811;BME280;33575;52.600;7.318;2022-12-07T10:12:21;101318.06;;;3.19;98.39
47811;BME280;33575;52.600;7.318;2022-12-07T10:15:02;101316.57;;;3.14;97.58
47811;BME280;33575;52.600;7.318;2022-12-07T10:17:30;101317.29;;;3.05;98.11
47811;BME280;33575;52.600;7.318;2022-12-07T10:22:29;101320.80;;;2.91;97.91
47811;BME280;33575;52.600;7.318;2022-12-07T10:24:55;101316.11;;;2.84;98.54
47811;BME280;33575;52.600;7.318;2022-12-07T10:27:29;101319.40;;;2.85;98.94
47811;BME280;33575;52.600;7.318;2022-12-07T10:29:57;101318.37;;;2.89;98.50
47811;BME280;33575;52.600;7.318;2022-12-07T10:32:31;101316.05;;;2.88;98.93
47811;BME280;33575;52.600;7.318;2022-12-07T10:37:29;101310.00;;;3.07;99.10
47811;BME280;33575;52.600;7.318;2022-12-07T10:40:00;101309.59;;;3.00;100.00
47811;BME280;33575;52.600;7.318;2022-12-07T10:42:31;101307.27;;;3.17;99.23
47811;BME280;33575;52.600;7.318;2022-12-07T10:45:07;101300.57;;;3.34;99.02
47811;BME280;33575;52.600;7.318;2022-12-07T10:47:35;101287.53;;;3.40;98.69
47811;BME280;33575;52.600;7.318;2022-12-07T10:50:14;101292.75;;;3.48;98.65
47811;BME280;33575;52.600;7.318;2022-12-07T10:52:45;101288.50;;;3.53;97.72
47811;BME280;33575;52.600;7.318;2022-12-07T10:55:16;101289.29;;;3.63;97.95
47811;BME280;33575;52.600;7.318;2022-12-07T10:57:44;101287.46;;;3.77;98.09
47811;BME280;33575;52.600;7.318;2022-12-07T11:00:13;101284.30;;;3.87;96.76
47811;BME280;33575;52.600;7.318;2022-12-07T11:05:16;101282.98;;;4.02;97.21
47811;BME280;33575;52.600;7.318;2022-12-07T11:07:45;101279.99;;;4.05;97.11
47811;BME280;33575;52.600;7.318;2022-12-07T11:10:16;101279.75;;;4.09;96.10
47811;BME280;33575;52.600;7.318;2022-12-07T11:12:52;101277.83;;;4.12;96.50
47811;BME280;33575;52.600;7.318;2022-12-07T11:15:15;101278.57;;;4.23;96.31
47811;BME280;33575;52.600;7.318;2022-12-07T11:17:48;101273.29;;;4.28;95.35
47811;BME280;33575;52.600;7.318;2022-12-07T11:20:20;101271.32;;;4.25;95.51
47811;BME280;33575;52.600;7.318;2022-12-07T11:22:49;101265.84;;;4.17;94.75
47811;BME280;33575;52.600;7.318;2022-12-07T11:25:21;101263.96;;;4.14;94.47
47811;BME280;33575;52.600;7.318;2022-12-07T11:27:48;101255.05;;;4.17;94.93
47811;BME280;33575;52.600;7.318;2022-12-07T11:30:19;101252.32;;;4.01;94.88
47811;BME280;33575;52.600;7.318;2022-12-07T11:32:53;101253.02;;;4.15;94.88
47811;BME280;33575;52.600;7.318;2022-12-07T11:35:24;101246.52;;;4.15;95.02
47811;BME280;33575;52.600;7.318;2022-12-07T11:37:47;101240.00;;;4.25;93.75
47811;BME280;33575;52.600;7.318;2022-12-07T11:40:24;101240.78;;;4.32;94.56
47811;BME280;33575;52.600;7.318;2022-12-07T11:42:52;101231.17;;;4.22;94.59
47811;BME280;33575;52.600;7.318;2022-12-07T11:45:23;101228.62;;;4.31;94.04
47811;BME280;33575;52.600;7.318;2022-12-07T11:47:55;101232.50;;;4.39;93.47
47811;BME280;33575;52.600;7.318;2022-12-07T11:50:26;101233.76;;;4.46;93.07
47811;BME280;33575;52.600;7.318;2022-12-07T11:52:54;101235.67;;;4.51;93.55
47811;BME280;33575;52.600;7.318;2022-12-07T11:55:29;101232.12;;;4.54;93.79
47811;BME280;33575;52.600;7.318;2022-12-07T11:58:00;101228.74;;;4.50;93.02
47811;BME280;33575;52.600;7.318;2022-12-07T12:00:23;101229.10;;;4.60;93.78
47811;BME280;33575;52.600;7.318;2022-12-07T12:02:59;101230.68;;;4.46;94.50
47811;BME280;33575;52.600;7.318;2022-12-07T12:05:26;101223.41;;;4.63;93.40
47811;BME280;33575;52.600;7.318;2022-12-07T12:08:06;101214.98;;;4.42;94.51
47811;BME280;33575;52.600;7.318;2022-12-07T12:10:35;101214.58;;;4.48;93.69
47811;BME280;33575;52.600;7.318;2022-12-07T12:13:15;101224.58;;;4.35;93.24
47811;BME280;33575;52.600;7.318;2022-12-07T12:15:37;101220.60;;;4.37;93.62
47811;BME280;33575;52.600;7.318;2022-12-07T12:18:13;101212.62;;;4.42;93.34
47811;BME280;33575;52.600;7.318;2022-12-07T12:20:32;101211.85;;;4.40;93.51
47811;BME280;33575;52.600;7.318;2022-12-07T12:23:06;101205.71;;;4.36;93.92
47811;BME280;33575;52.600;7.318;2022-12-07T12:25:37;101200.53;;;4.39;94.01
47811;BME280;33575;52.600;7.318;2022-12-07T12:28:02;101199.89;;;4.41;93.42
47811;BME280;33575;52.600;7.318;2022-12-07T12:30:36;101204.61;;;4.46;92.65
47811;BME280;33575;52.600;7.318;2022-12-07T12:33:12;101199.44;;;4.57;92.55
47811;BME280;33575;52.600;7.318;2022-12-07T12:35:35;101194.50;;;4.45;93.65
47811;BME280;33575;52.600;7.318;2022-12-07T12:40:40;101199.78;;;4.57;92.66
47811;BME280;33575;52.600;7.318;2022-12-07T12:45:37;101193.14;;;4.53;92.48
47811;BME280;33575;52.600;7.318;2022-12-07T12:50:39;101197.40;;;4.56;91.91
47811;BME280;33575;52.600;7.318;2022-12-07T12:53:15;101197.87;;;4.40;92.70
47811;BME280;33575;52.600;7.318;2022-12-07T13:00:41;101202.14;;;4.28;93.05
47811;BME280;33575;52.600;7.318;2022-12-07T13:03:21;101201.17;;;4.39;93.06
47811;BME280;33575;52.600;7.318;2022-12-07T13:05:42;101200.01;;;4.33;92.80
47811;BME280;33575;52.600;7.318;2022-12-07T13:08:17;101197.34;;;4.22;92.82
47811;BME280;33575;52.600;7.318;2022-12-07T13:10:46;101190.01;;;3.99;95.23
47811;BME280;33575;52.600;7.318;2022-12-07T13:15:47;101184.94;;;4.06;96.50
47811;BME280;33575;52.600;7.318;2022-12-07T13:18:23;101181.58;;;4.16;96.20
47811;BME280;33575;52.600;7.318;2022-12-07T13:20:49;101176.87;;;4.29;96.35
47811;BME280;33575;52.600;7.318;2022-12-07T13:23:22;101170.19;;;4.43;94.35
47811;BME280;33575;52.600;7.318;2022-12-07T13:25:54;101168.52;;;4.52;93.59
47811;BME280;33575;52.600;7.318;2022-12-07T13:28:21;101163.43;;;4.54;91.85
47811;BME280;33575;52.600;7.318;2022-12-07T13:31:03;101161.16;;;4.53;91.98
47811;BME280;33575;52.600;7.318;2022-12-07T13:33:21;101158.86;;;4.53;92.89
47811;BME280;33575;52.600;7.318;2022-12-07T13:35:54;101158.19;;;4.57;93.23
47811;BME280;33575;52.600;7.318;2022-12-07T13:38:25;101156.28;;;4.53;92.91
47811;BME280;33575;52.600;7.318;2022-12-07T13:41:00;101151.58;;;4.53;92.85
47811;BME280;33575;52.600;7.318;2022-12-07T13:43:24;101155.24;;;4.49;92.60
47811;BME280;33575;52.600;7.318;2022-12-07T13:45:56;101155.37;;;4.45;93.01